sensor_id;sensor_type;location;lat;lon;timestamp;pressure;altitude;pressure_sealevel;temperature;humidity
61682;BME280;47577;43.610;25.010;2024-02-21T00:02:09;101236.97;;;4.02;96.37
61682;BME280;47577;43.610;25.010;2024-02-21T00:04:34;101228.19;;;4.03;94.50
61682;BME280;47577;43.610;25.010;2024-02-21T00:07:01;101234.28;;;3.96;95.24
61682;BME280;47577;43.610;25.010;2024-02-21T00:09:27;101241.34;;;4.05;96.75
61682;BME280;47577;43.610;25.010;2024-02-21T00:11:53;101230.78;;;3.95;97.09
61682;BME280;47577;43.610;25.010;2024-02-21T00:14:19;101222.94;;;4.05;96.89
61682;BME280;47577;43.610;25.010;2024-02-21T00:16:45;101227.34;;;4.06;97.13
61682;BME280;47577;43.610;25.010;2024-02-21T00:19:10;101220.38;;;4.15;94.03
61682;BME280;47577;43.610;25.010;2024-02-21T00:21:36;101225.72;;;4.26;93.19
61682;BME280;47577;43.610;25.010;2024-02-21T00:24:01;101226.56;;;4.25;92.68
61682;BME280;47577;43.610;25.010;2024-02-21T00:26:27;101221.25;;;4.14;91.64
61682;BME280;47577;43.610;25.010;2024-02-21T00:28:53;101223.03;;;4.20;91.93
61682;BME280;47577;43.610;25.010;2024-02-21T00:31:18;101218.69;;;4.27;92.13
61682;BME280;47577;43.610;25.010;2024-02-21T00:33:44;101217.00;;;4.41;91.11
61682;BME280;47577;43.610;25.010;2024-02-21T00:36:09;101219.69;;;4.49;89.29
61682;BME280;47577;43.610;25.010;2024-02-21T00:38:35;101217.03;;;4.55;87.73
61682;BME280;47577;43.610;25.010;2024-02-21T00:41:01;101229.38;;;4.61;88.90
61682;BME280;47577;43.610;25.010;2024-02-21T00:43:26;101221.50;;;4.68;89.96
61682;BME280;47577;43.610;25.010;2024-02-21T00:45:52;101214.47;;;4.66;86.90
61682;BME280;47577;43.610;25.010;2024-02-21T00:48:18;101220.59;;;4.65;83.87
61682;BME280;47577;43.610;25.010;2024-02-21T00:50:44;101221.50;;;4.74;83.81
61682;BME280;47577;43.610;25.010;2024-02-21T00:53:11;101215.31;;;4.63;90.21
61682;BME280;47577;43.610;25.010;2024-02-21T00:55:38;101210.97;;;4.70;89.54
61682;BME280;47577;43.610;25.010;2024-02-21T00:58:03;101213.59;;;4.74;86.35
61682;BME280;47577;43.610;25.010;2024-02-21T01:00:29;101215.34;;;4.72;89.17
61682;BME280;47577;43.610;25.010;2024-02-21T01:02:54;101213.59;;;4.65;90.78
61682;BME280;47577;43.610;25.010;2024-02-21T01:05:20;101210.06;;;4.60;91.09
61682;BME280;47577;43.610;25.010;2024-02-21T01:07:46;101214.41;;;4.56;87.84
61682;BME280;47577;43.610;25.010;2024-02-21T01:10:11;101216.16;;;4.48;84.64
61682;BME280;47577;43.610;25.010;2024-02-21T01:12:37;101204.75;;;4.49;85.63
61682;BME280;47577;43.610;25.010;2024-02-21T01:15:03;101208.28;;;4.54;84.90
61682;BME280;47577;43.610;25.010;2024-02-21T01:17:29;101200.34;;;4.47;83.09
61682;BME280;47577;43.610;25.010;2024-02-21T01:19:54;101199.44;;;4.40;81.79
61682;BME280;47577;43.610;25.010;2024-02-21T01:22:20;101195.88;;;4.30;83.08
61682;BME280;47577;43.610;25.010;2024-02-21T01:24:45;101200.25;;;4.27;83.03
61682;BME280;47577;43.610;25.010;2024-02-21T01:27:12;101183.53;;;4.15;82.54
61682;BME280;47577;43.610;25.010;2024-02-21T01:29:37;101187.91;;;4.15;81.29
61682;BME280;47577;43.610;25.010;2024-02-21T01:32:03;101187.84;;;4.02;81.76
61682;BME280;47577;43.610;25.010;2024-02-21T01:34:29;101181.63;;;3.91;82.91
61682;BME280;47577;43.610;25.010;2024-02-21T01:36:54;101184.22;;;3.83;84.66
61682;BME280;47577;43.610;25.010;2024-02-21T01:39:20;101185.03;;;3.72;84.81
61682;BME280;47577;43.610;25.010;2024-02-21T01:41:45;101165.63;;;3.57;84.74
61682;BME280;47577;43.610;25.010;2024-02-21T01:44:11;101177.03;;;3.61;89.50
61682;BME280;47577;43.610;25.010;2024-02-21T01:46:37;101185.81;;;3.60;91.75
61682;BME280;47577;43.610;25.010;2024-02-21T01:49:03;101179.69;;;3.62;92.54
61682;BME280;47577;43.610;25.010;2024-02-21T01:51:30;101169.06;;;3.47;93.43
61682;BME280;47577;43.610;25.010;2024-02-21T01:53:57;101175.13;;;3.40;95.75
61682;BME280;47577;43.610;25.010;2024-02-21T01:56:23;101179.50;;;3.36;89.79
61682;BME280;47577;43.610;25.010;2024-02-21T01:58:49;101183.75;;;3.23;87.12
61682;BME280;47577;43.610;25.010;2024-02-21T02:01:16;101165.34;;;3.22;87.79
61682;BME280;47577;43.610;25.010;2024-02-21T02:03:44;101172.44;;;3.29;85.90
61682;BME280;47577;43.610;25.010;2024-02-21T02:06:10;101184.72;;;3.32;84.20
61682;BME280;47577;43.610;25.010;2024-02-21T02:08:36;101181.22;;;3.31;84.64
61682;BME280;47577;43.610;25.010;2024-02-21T02:11:02;101166.25;;;3.21;85.54
61682;BME280;47577;43.610;25.010;2024-02-21T02:13:28;101166.25;;;3.27;88.71
61682;BME280;47577;43.610;25.010;2024-02-21T02:15:54;101171.56;;;3.32;87.28
61682;BME280;47577;43.610;25.010;2024-02-21T02:18:20;101163.66;;;3.30;85.64
61682;BME280;47577;43.610;25.010;2024-02-21T02:20:47;101177.75;;;3.40;86.03
61682;BME280;47577;43.610;25.010;2024-02-21T02:23:31;101177.78;;;3.43;85.07
61682;BME280;47577;43.610;25.010;2024-02-21T02:25:57;101175.25;;;3.52;85.19
61682;BME280;47577;43.610;25.010;2024-02-21T02:28:23;101177.03;;;3.59;85.57
61682;BME280;47577;43.610;25.010;2024-02-21T02:30:50;101169.13;;;3.56;83.75
61682;BME280;47577;43.610;25.010;2024-02-21T02:33:15;101178.84;;;3.66;83.55
61682;BME280;47577;43.610;25.010;2024-02-21T02:35:45;101175.34;;;3.69;84.89
61682;BME280;47577;43.610;25.010;2024-02-21T02:38:11;101179.75;;;3.70;83.31
61682;BME280;47577;43.610;25.010;2024-02-21T02:40:38;101174.50;;;3.70;83.22
61682;BME280;47577;43.610;25.010;2024-02-21T02:43:05;101175.34;;;3.67;81.47
61682;BME280;47577;43.610;25.010;2024-02-21T02:45:31;101182.38;;;3.69;81.34
61682;BME280;47577;43.610;25.010;2024-02-21T02:47:57;101175.34;;;3.64;81.77
61682;BME280;47577;43.610;25.010;2024-02-21T02:50:24;101185.00;;;3.70;81.79
61682;BME280;47577;43.610;25.010;2024-02-21T02:52:49;101195.56;;;3.75;82.70
61682;BME280;47577;43.610;25.010;2024-02-21T02:55:15;101190.34;;;3.79;81.31
61682;BME280;47577;43.610;25.010;2024-02-21T02:57:42;101181.56;;;3.79;81.91
61682;BME280;47577;43.610;25.010;2024-02-21T03:00:08;101185.94;;;3.80;82.28
61682;BME280;47577;43.610;25.010;2024-02-21T03:02:35;101190.38;;;3.82;83.04
61682;BME280;47577;43.610;25.010;2024-02-21T03:05:00;101192.09;;;3.83;81.44
61682;BME280;47577;43.610;25.010;2024-02-21T03:07:26;101184.19;;;3.82;82.14
61682;BME280;47577;43.610;25.010;2024-02-21T03:09:52;101185.03;;;3.72;83.33
61682;BME280;47577;43.610;25.010;2024-02-21T03:12:18;101181.50;;;3.70;83.69
61682;BME280;47577;43.610;25.010;2024-02-21T03:14:50;101179.72;;;3.67;81.47
61682;BME280;47577;43.610;25.010;2024-02-21T03:17:16;101189.38;;;3.68;83.80
61682;BME280;47577;43.610;25.010;2024-02-21T03:19:41;101175.31;;;3.66;82.14
61682;BME280;47577;43.610;25.010;2024-02-21T03:22:07;101184.09;;;3.65;80.59
61682;BME280;47577;43.610;25.010;2024-02-21T03:24:33;101176.19;;;3.62;81.93
61682;BME280;47577;43.610;25.010;2024-02-21T03:26:58;101174.47;;;3.67;81.65
61682;BME280;47577;43.610;25.010;2024-02-21T03:29:25;101172.69;;;3.63;81.43
61682;BME280;47577;43.610;25.010;2024-02-21T03:31:50;101184.03;;;3.57;81.54
61682;BME280;47577;43.610;25.010;2024-02-21T03:34:16;101172.66;;;3.57;82.53
61682;BME280;47577;43.610;25.010;2024-02-21T03:36:42;101174.38;;;3.56;82.23
61682;BME280;47577;43.610;25.010;2024-02-21T03:39:08;101178.75;;;3.54;84.43
61682;BME280;47577;43.610;25.010;2024-02-21T03:41:34;101176.09;;;3.53;83.84
61682;BME280;47577;43.610;25.010;2024-02-21T03:44:00;101166.44;;;3.47;83.81
61682;BME280;47577;43.610;25.010;2024-02-21T03:46:27;101178.69;;;3.45;82.45
61682;BME280;47577;43.610;25.010;2024-02-21T03:48:56;101161.97;;;3.37;83.46
61682;BME280;47577;43.610;25.010;2024-02-21T03:51:21;101175.13;;;3.40;84.68
61682;BME280;47577;43.610;25.010;2024-02-21T03:53:47;101161.94;;;3.34;88.28
61682;BME280;47577;43.610;25.010;2024-02-21T03:56:13;101174.25;;;3.38;91.05
61682;BME280;47577;43.610;25.010;2024-02-21T03:58:38;101164.59;;;3.38;92.88
61682;BME280;47577;43.610;25.010;2024-02-21T04:01:04;101150.59;;;3.38;93.53
61682;BME280;47577;43.610;25.010;2024-02-21T04:03:30;101156.69;;;3.32;95.41
61682;BME280;47577;43.610;25.010;2024-02-21T04:05:56;101159.31;;;3.34;96.12
61682;BME280;47577;43.610;25.010;2024-02-21T04:08:22;101160.94;;;3.18;97.09
61682;BME280;47577;43.610;25.010;2024-02-21T04:10:48;101160.09;;;3.22;97.59
61682;BME280;47577;43.610;25.010;2024-02-21T04:13:14;101168.00;;;3.25;97.78
61682;BME280;47577;43.610;25.010;2024-02-21T04:15:40;101160.06;;;3.17;98.88
61682;BME280;47577;43.610;25.010;2024-02-21T04:18:06;101153.19;;;3.35;99.17
61682;BME280;47577;43.610;25.010;2024-02-21T04:20:31;101162.06;;;3.47;98.58
61682;BME280;47577;43.610;25.010;2024-02-21T04:22:57;101157.69;;;3.50;98.36
61682;BME280;47577;43.610;25.010;2024-02-21T04:25:23;101171.78;;;3.61;98.10
61682;BME280;47577;43.610;25.010;2024-02-21T04:27:49;101164.78;;;3.58;98.16
61682;BME280;47577;43.610;25.010;2024-02-21T04:30:17;101164.75;;;3.55;96.79
61682;BME280;47577;43.610;25.010;2024-02-21T04:32:43;101166.44;;;3.45;97.98
61682;BME280;47577;43.610;25.010;2024-02-21T04:35:08;101170.06;;;3.61;98.45
61682;BME280;47577;43.610;25.010;2024-02-21T04:37:34;101174.41;;;3.59;97.99
61682;BME280;47577;43.610;25.010;2024-02-21T04:40:00;101170.94;;;3.62;97.78
61682;BME280;47577;43.610;25.010;2024-02-21T04:42:27;101172.69;;;3.67;98.21
61682;BME280;47577;43.610;25.010;2024-02-21T04:44:52;101171.00;;;3.71;98.22
61682;BME280;47577;43.610;25.010;2024-02-21T04:47:18;101163.94;;;3.65;97.49
61682;BME280;47577;43.610;25.010;2024-02-21T04:49:45;101176.22;;;3.66;97.77
61682;BME280;47577;43.610;25.010;2024-02-21T04:52:11;101173.66;;;3.73;96.98
61682;BME280;47577;43.610;25.010;2024-02-21T04:54:37;101176.28;;;3.74;97.54
61682;BME280;47577;43.610;25.010;2024-02-21T04:57:03;101179.75;;;3.70;98.12
61682;BME280;47577;43.610;25.010;2024-02-21T04:59:29;101175.41;;;3.77;98.03
61682;BME280;47577;43.610;25.010;2024-02-21T05:01:55;101178.03;;;3.77;96.97
61682;BME280;47577;43.610;25.010;2024-02-21T05:04:20;101177.22;;;3.87;98.22
61682;BME280;47577;43.610;25.010;2024-02-21T05:06:46;101181.66;;;3.96;97.32
61682;BME280;47577;43.610;25.010;2024-02-21T05:09:12;101179.94;;;4.02;97.91
61682;BME280;47577;43.610;25.010;2024-02-21T05:11:38;101169.41;;;4.02;97.07
61682;BME280;47577;43.610;25.010;2024-02-21T05:14:04;101173.00;;;4.15;96.62
61682;BME280;47577;43.610;25.010;2024-02-21T05:16:30;101165.16;;;4.23;96.27
61682;BME280;47577;43.610;25.010;2024-02-21T05:18:56;101172.13;;;4.22;96.52
61682;BME280;47577;43.610;25.010;2024-02-21T05:21:25;101181.88;;;4.36;96.64
61682;BME280;47577;43.610;25.010;2024-02-21T05:23:52;101174.88;;;4.44;96.20
61682;BME280;47577;43.610;25.010;2024-02-21T05:26:22;101185.44;;;4.55;96.26
61682;BME280;47577;43.610;25.010;2024-02-21T05:28:48;101187.22;;;4.62;95.66
61682;BME280;47577;43.610;25.010;2024-02-21T05:31:15;101181.09;;;4.71;95.24
61682;BME280;47577;43.610;25.010;2024-02-21T05:33:42;101180.25;;;4.72;94.99
61682;BME280;47577;43.610;25.010;2024-02-21T05:36:08;101185.53;;;4.75;94.78
61682;BME280;47577;43.610;25.010;2024-02-21T05:38:33;101183.78;;;4.82;95.52
61682;BME280;47577;43.610;25.010;2024-02-21T05:40:59;101185.53;;;4.76;95.33
61682;BME280;47577;43.610;25.010;2024-02-21T05:43:24;101181.13;;;4.80;95.25
61682;BME280;47577;43.610;25.010;2024-02-21T05:45:50;101177.63;;;4.78;94.86
61682;BME280;47577;43.610;25.010;2024-02-21T05:48:16;101193.44;;;4.89;94.44
61682;BME280;47577;43.610;25.010;2024-02-21T05:50:41;101186.44;;;4.99;94.17
61682;BME280;47577;43.610;25.010;2024-02-21T05:53:07;101206.66;;;5.06;94.14
61682;BME280;47577;43.610;25.010;2024-02-21T05:55:33;101203.13;;;5.08;93.28
61682;BME280;47577;43.610;25.010;2024-02-21T05:57:58;101196.13;;;5.17;92.47
61682;BME280;47577;43.610;25.010;2024-02-21T06:00:24;101203.16;;;5.19;92.50
61682;BME280;47577;43.610;25.010;2024-02-21T06:02:49;101201.38;;;5.18;92.46
61682;BME280;47577;43.610;25.010;2024-02-21T06:05:15;101198.78;;;5.24;93.07
61682;BME280;47577;43.610;25.010;2024-02-21T06:07:41;101202.28;;;5.28;91.63
61682;BME280;47577;43.610;25.010;2024-02-21T06:10:07;101211.97;;;5.40;92.19
61682;BME280;47577;43.610;25.010;2024-02-21T06:12:33;101204.94;;;5.40;91.28
61682;BME280;47577;43.610;25.010;2024-02-21T06:14:59;101208.44;;;5.39;91.29
61682;BME280;47577;43.610;25.010;2024-02-21T06:17:24;101201.44;;;5.43;91.23
61682;BME280;47577;43.610;25.010;2024-02-21T06:19:50;101217.25;;;5.55;91.31
61682;BME280;47577;43.610;25.010;2024-02-21T06:22:16;101213.72;;;5.55;91.19
61682;BME280;47577;43.610;25.010;2024-02-21T06:24:41;101214.59;;;5.63;89.96
61682;BME280;47577;43.610;25.010;2024-02-21T06:27:07;101234.84;;;5.68;89.66
61682;BME280;47577;43.610;25.010;2024-02-21T06:29:33;101224.31;;;5.67;91.16
61682;BME280;47577;43.610;25.010;2024-02-21T06:31:59;101229.56;;;5.64;90.51
61682;BME280;47577;43.610;25.010;2024-02-21T06:34:24;101230.44;;;5.67;90.33
61682;BME280;47577;43.610;25.010;2024-02-21T06:36:50;101231.31;;;5.63;89.72
61682;BME280;47577;43.610;25.010;2024-02-21T06:39:16;101237.47;;;5.73;90.06
61682;BME280;47577;43.610;25.010;2024-02-21T06:41:42;101237.47;;;5.84;90.43
61682;BME280;47577;43.610;25.010;2024-02-21T06:44:08;101239.19;;;5.91;89.96
61682;BME280;47577;43.610;25.010;2024-02-21T06:46:33;101235.72;;;5.98;89.71
61682;BME280;47577;43.610;25.010;2024-02-21T06:49:00;101244.50;;;6.17;90.67
61682;BME280;47577;43.610;25.010;2024-02-21T06:51:26;101247.09;;;6.23;89.63
61682;BME280;47577;43.610;25.010;2024-02-21T06:53:53;101244.50;;;6.17;89.41
61682;BME280;47577;43.610;25.010;2024-02-21T06:56:18;101226.88;;;6.09;88.98
61682;BME280;47577;43.610;25.010;2024-02-21T06:58:44;101239.16;;;6.25;87.98
61682;BME280;47577;43.610;25.010;2024-02-21T07:01:11;101242.66;;;6.39;89.23
61682;BME280;47577;43.610;25.010;2024-02-21T07:03:36;101240.00;;;6.41;88.30
61682;BME280;47577;43.610;25.010;2024-02-21T07:06:03;101237.34;;;6.49;86.96
61682;BME280;47577;43.610;25.010;2024-02-21T07:08:28;101240.91;;;6.43;87.67
61682;BME280;47577;43.610;25.010;2024-02-21T07:10:54;101243.56;;;6.35;87.97
61682;BME280;47577;43.610;25.010;2024-02-21T07:13:20;101241.78;;;6.48;88.00
61682;BME280;47577;43.610;25.010;2024-02-21T07:15:47;101234.72;;;6.39;87.53
61682;BME280;47577;43.610;25.010;2024-02-21T07:18:13;101244.41;;;6.47;88.24
61682;BME280;47577;43.610;25.010;2024-02-21T07:20:40;101240.00;;;6.49;87.87
61682;BME280;47577;43.610;25.010;2024-02-21T07:23:07;101246.13;;;6.54;87.87
61682;BME280;47577;43.610;25.010;2024-02-21T07:25:33;101240.84;;;6.54;88.51
61682;BME280;47577;43.610;25.010;2024-02-21T07:27:58;101240.84;;;6.51;88.30
61682;BME280;47577;43.610;25.010;2024-02-21T07:30:24;101239.06;;;6.59;86.80
61682;BME280;47577;43.610;25.010;2024-02-21T07:32:50;101224.97;;;6.60;87.52
61682;BME280;47577;43.610;25.010;2024-02-21T07:35:17;101230.25;;;6.60;87.34
61682;BME280;47577;43.610;25.010;2024-02-21T07:37:43;101238.16;;;6.71;87.87
61682;BME280;47577;43.610;25.010;2024-02-21T07:40:16;101236.34;;;6.82;86.85
61682;BME280;47577;43.610;25.010;2024-02-21T07:42:42;101238.97;;;6.87;86.82
61682;BME280;47577;43.610;25.010;2024-02-21T07:45:09;101245.97;;;6.89;86.36
61682;BME280;47577;43.610;25.010;2024-02-21T07:47:36;101237.16;;;6.95;86.09
61682;BME280;47577;43.610;25.010;2024-02-21T07:50:03;101243.28;;;7.03;86.25
61682;BME280;47577;43.610;25.010;2024-02-21T07:52:28;101237.97;;;7.06;85.73
61682;BME280;47577;43.610;25.010;2024-02-21T07:54:54;101245.84;;;7.09;85.30
61682;BME280;47577;43.610;25.010;2024-02-21T07:57:20;101234.44;;;7.04;85.63
61682;BME280;47577;43.610;25.010;2024-02-21T07:59:45;101239.72;;;7.04;86.25
61682;BME280;47577;43.610;25.010;2024-02-21T08:02:16;101238.78;;;7.19;85.89
61682;BME280;47577;43.610;25.010;2024-02-21T08:04:42;101240.50;;;7.22;85.09
61682;BME280;47577;43.610;25.010;2024-02-21T08:07:09;101237.88;;;7.20;85.44
61682;BME280;47577;43.610;25.010;2024-02-21T08:09:35;101231.75;;;7.10;85.24
61682;BME280;47577;43.610;25.010;2024-02-21T08:12:04;101234.38;;;7.18;85.27
61682;BME280;47577;43.610;25.010;2024-02-21T08:14:30;101238.78;;;7.18;85.76
61682;BME280;47577;43.610;25.010;2024-02-21T08:16:56;101237.84;;;7.23;84.77
61682;BME280;47577;43.610;25.010;2024-02-21T08:19:22;101239.63;;;7.21;85.09
61682;BME280;47577;43.610;25.010;2024-02-21T08:21:50;101238.72;;;7.24;84.51
61682;BME280;47577;43.610;25.010;2024-02-21T08:24:16;101236.03;;;7.33;83.86
61682;BME280;47577;43.610;25.010;2024-02-21T08:26:42;101234.22;;;7.37;83.68
61682;BME280;47577;43.610;25.010;2024-02-21T08:29:10;101231.59;;;7.35;84.46
61682;BME280;47577;43.610;25.010;2024-02-21T08:31:35;101232.47;;;7.37;83.04
61682;BME280;47577;43.610;25.010;2024-02-21T08:34:01;101230.66;;;7.42;83.18
61682;BME280;47577;43.610;25.010;2024-02-21T08:36:31;101235.84;;;7.55;83.44
61682;BME280;47577;43.610;25.010;2024-02-21T08:38:58;101233.22;;;7.53;83.60
61682;BME280;47577;43.610;25.010;2024-02-21T08:41:24;101233.19;;;7.55;83.22
61682;BME280;47577;43.610;25.010;2024-02-21T08:43:54;101238.41;;;7.67;84.28
61682;BME280;47577;43.610;25.010;2024-02-21T08:46:26;101228.81;;;7.54;82.81
61682;BME280;47577;43.610;25.010;2024-02-21T08:48:53;101242.88;;;7.60;82.29
61682;BME280;47577;43.610;25.010;2024-02-21T08:51:19;101229.59;;;7.66;83.98
61682;BME280;47577;43.610;25.010;2024-02-21T08:53:48;101239.22;;;7.75;83.08
61682;BME280;47577;43.610;25.010;2024-02-21T08:56:13;101230.41;;;7.73;83.06
61682;BME280;47577;43.610;25.010;2024-02-21T08:58:40;101238.31;;;7.81;83.00
61682;BME280;47577;43.610;25.010;2024-02-21T09:01:06;101225.03;;;7.84;83.10
61682;BME280;47577;43.610;25.010;2024-02-21T09:03:38;101238.03;;;8.07;81.48
61682;BME280;47577;43.610;25.010;2024-02-21T09:06:10;101239.72;;;8.14;82.59
61682;BME280;47577;43.610;25.010;2024-02-21T09:08:35;101247.66;;;8.14;82.03
61682;BME280;47577;43.610;25.010;2024-02-21T09:11:01;101238.94;;;8.06;82.57
61682;BME280;47577;43.610;25.010;2024-02-21T09:13:27;101254.06;;;7.93;83.94
61682;BME280;47577;43.610;25.010;2024-02-21T09:15:53;101256.53;;;8.13;82.97
61682;BME280;47577;43.610;25.010;2024-02-21T09:18:18;101256.41;;;8.22;80.71
61682;BME280;47577;43.610;25.010;2024-02-21T09:20:44;101242.34;;;8.17;82.16
61682;BME280;47577;43.610;25.010;2024-02-21T09:23:10;101250.25;;;8.20;80.09
61682;BME280;47577;43.610;25.010;2024-02-21T09:25:36;101254.56;;;8.31;80.90
61682;BME280;47577;43.610;25.010;2024-02-21T09:28:02;101265.94;;;8.39;80.50
61682;BME280;47577;43.610;25.010;2024-02-21T09:30:28;101246.53;;;8.37;80.38
61682;BME280;47577;43.610;25.010;2024-02-21T09:32:54;101249.09;;;8.51;80.24
61682;BME280;47577;43.610;25.010;2024-02-21T09:35:19;101254.34;;;8.55;81.10
61682;BME280;47577;43.610;25.010;2024-02-21T09:37:48;101242.78;;;8.59;81.16
61682;BME280;47577;43.610;25.010;2024-02-21T09:40:15;101253.38;;;8.59;80.22
61682;BME280;47577;43.610;25.010;2024-02-21T09:42:42;101259.47;;;8.68;80.02
61682;BME280;47577;43.610;25.010;2024-02-21T09:45:23;101258.41;;;8.83;79.12
61682;BME280;47577;43.610;25.010;2024-02-21T09:50:40;101254.09;;;8.75;80.95
61682;BME280;47577;43.610;25.010;2024-02-21T09:53:09;101248.69;;;8.83;80.13
61682;BME280;47577;43.610;25.010;2024-02-21T09:55:38;101241.00;;;8.60;80.18
61682;BME280;47577;43.610;25.010;2024-02-21T09:58:07;101239.78;;;8.87;78.32
61682;BME280;47577;43.610;25.010;2024-02-21T10:00:35;101241.59;;;8.84;78.52
61682;BME280;47577;43.610;25.010;2024-02-21T10:03:01;101237.00;;;8.98;78.46
61682;BME280;47577;43.610;25.010;2024-02-21T10:05:26;101225.47;;;9.01;76.77
61682;BME280;47577;43.610;25.010;2024-02-21T10:07:53;101227.78;;;9.24;76.82
61682;BME280;47577;43.610;25.010;2024-02-21T10:10:20;101210.88;;;9.29;76.77
61682;BME280;47577;43.610;25.010;2024-02-21T10:12:51;101230.03;;;9.48;75.63
61682;BME280;47577;43.610;25.010;2024-02-21T10:15:24;101239.44;;;9.69;75.64
61682;BME280;47577;43.610;25.010;2024-02-21T10:17:58;101216.81;;;9.45;75.28
61682;BME280;47577;43.610;25.010;2024-02-21T10:20:24;101224.28;;;9.75;73.29
61682;BME280;47577;43.610;25.010;2024-02-21T10:23:00;101217.28;;;9.72;72.13
61682;BME280;47577;43.610;25.010;2024-02-21T10:25:27;101212.75;;;9.77;72.40
61682;BME280;47577;43.610;25.010;2024-02-21T10:27:53;101202.41;;;9.60;71.34
61682;BME280;47577;43.610;25.010;2024-02-21T10:30:20;101196.81;;;9.77;71.97
61682;BME280;47577;43.610;25.010;2024-02-21T10:33:05;101191.38;;;9.85;72.22
61682;BME280;47577;43.610;25.010;2024-02-21T10:35:32;101184.88;;;10.00;71.58
61682;BME280;47577;43.610;25.010;2024-02-21T10:37:59;101184.78;;;10.06;70.95
61682;BME280;47577;43.610;25.010;2024-02-21T10:40:26;101192.44;;;10.21;70.27
61682;BME280;47577;43.610;25.010;2024-02-21T10:42:57;101179.44;;;10.07;70.02
61682;BME280;47577;43.610;25.010;2024-02-21T10:45:31;101191.31;;;10.35;70.18
61682;BME280;47577;43.610;25.010;2024-02-21T10:48:15;101185.63;;;10.53;71.03
61682;BME280;47577;43.610;25.010;2024-02-21T10:53:36;101185.81;;;10.44;68.01
61682;BME280;47577;43.610;25.010;2024-02-21T10:56:31;101174.06;;;10.54;68.90
61682;BME280;47577;43.610;25.010;2024-02-21T10:59:02;101168.16;;;10.41;68.78
61682;BME280;47577;43.610;25.010;2024-02-21T11:01:31;101171.31;;;10.59;68.71
61682;BME280;47577;43.610;25.010;2024-02-21T11:04:03;101165.97;;;10.60;67.93
61682;BME280;47577;43.610;25.010;2024-02-21T11:06:30;101155.19;;;10.67;67.94
61682;BME280;47577;43.610;25.010;2024-02-21T11:09:04;101150.81;;;10.64;67.54
61682;BME280;47577;43.610;25.010;2024-02-21T11:11:37;101150.31;;;10.87;67.13
61682;BME280;47577;43.610;25.010;2024-02-21T11:14:20;101149.78;;;10.71;67.75
61682;BME280;47577;43.610;25.010;2024-02-21T11:16:46;101150.81;;;10.64;68.00
61682;BME280;47577;43.610;25.010;2024-02-21T11:21:44;101141.16;;;10.99;66.03
61682;BME280;47577;43.610;25.010;2024-02-21T11:24:09;101138.59;;;10.94;65.78
61682;BME280;47577;43.610;25.010;2024-02-21T11:26:37;101134.47;;;11.19;65.92
61682;BME280;47577;43.610;25.010;2024-02-21T11:29:02;101130.63;;;11.30;64.99
61682;BME280;47577;43.610;25.010;2024-02-21T11:31:39;101128.78;;;11.34;63.02
61682;BME280;47577;43.610;25.010;2024-02-21T11:34:09;101124.47;;;11.28;62.53
61682;BME280;47577;43.610;25.010;2024-02-21T11:36:34;101112.03;;;11.29;61.38
61682;BME280;47577;43.610;25.010;2024-02-21T11:39:04;101125.25;;;11.32;59.38
61682;BME280;47577;43.610;25.010;2024-02-21T11:41:31;101115.69;;;11.25;59.32
61682;BME280;47577;43.610;25.010;2024-02-21T11:43:56;101112.84;;;11.32;61.08
61682;BME280;47577;43.610;25.010;2024-02-21T11:46:22;101105.84;;;11.28;60.81
61682;BME280;47577;43.610;25.010;2024-02-21T11:48:49;101106.59;;;11.33;62.04
61682;BME280;47577;43.610;25.010;2024-02-21T11:51:35;101112.03;;;11.29;61.91
61682;BME280;47577;43.610;25.010;2024-02-21T11:54:00;101102.13;;;11.68;60.35
61682;BME280;47577;43.610;25.010;2024-02-21T11:56:26;101108.41;;;11.66;59.94
61682;BME280;47577;43.610;25.010;2024-02-21T11:58:52;101098.19;;;11.50;61.35
61682;BME280;47577;43.610;25.010;2024-02-21T12:01:18;101103.63;;;11.46;60.87
61682;BME280;47577;43.610;25.010;2024-02-21T12:03:43;101094.84;;;11.42;61.55
61682;BME280;47577;43.610;25.010;2024-02-21T12:06:16;101083.13;;;11.48;60.79
61682;BME280;47577;43.610;25.010;2024-02-21T12:08:45;101090.47;;;11.73;59.19
61682;BME280;47577;43.610;25.010;2024-02-21T12:11:21;101085.47;;;11.93;59.25
61682;BME280;47577;43.610;25.010;2024-02-21T12:14:08;101070.69;;;12.13;59.55
61682;BME280;47577;43.610;25.010;2024-02-21T12:16:35;101070.16;;;12.31;57.12
61682;BME280;47577;43.610;25.010;2024-02-21T12:19:03;101056.75;;;12.34;58.67
61682;BME280;47577;43.610;25.010;2024-02-21T12:21:33;101056.28;;;12.20;58.43
61682;BME280;47577;43.610;25.010;2024-02-21T12:24:22;101052.00;;;12.44;58.00
61682;BME280;47577;43.610;25.010;2024-02-21T12:26:49;101067.00;;;12.18;58.60
61682;BME280;47577;43.610;25.010;2024-02-21T12:29:15;101050.53;;;12.04;58.58
61682;BME280;47577;43.610;25.010;2024-02-21T12:31:41;101052.09;;;12.11;58.45
61682;BME280;47577;43.610;25.010;2024-02-21T12:34:06;101052.22;;;12.36;57.52
61682;BME280;47577;43.610;25.010;2024-02-21T12:36:40;101056.19;;;12.23;58.18
61682;BME280;47577;43.610;25.010;2024-02-21T12:39:08;101037.44;;;11.96;58.00
61682;BME280;47577;43.610;25.010;2024-02-21T12:41:34;101039.75;;;12.09;58.10
61682;BME280;47577;43.610;25.010;2024-02-21T12:44:02;101038.09;;;12.34;58.47
61682;BME280;47577;43.610;25.010;2024-02-21T12:46:29;101033.22;;;12.47;57.51
61682;BME280;47577;43.610;25.010;2024-02-21T12:48:54;101040.88;;;12.00;58.13
61682;BME280;47577;43.610;25.010;2024-02-21T12:51:20;101051.31;;;12.07;58.99
61682;BME280;47577;43.610;25.010;2024-02-21T12:53:47;101045.13;;;12.35;57.66
61682;BME280;47577;43.610;25.010;2024-02-21T12:56:15;101028.84;;;12.73;55.32